sensor_id;sensor_type;location;lat;lon;timestamp;P1;durP1;ratioP1;P2;durP2;ratioP2
10009;SDS011;5044;48.652;9.250;2022-07-05T00:00:24;1.20;;;0.98;;
10009;SDS011;5044;48.652;9.250;2022-07-05T00:02:51;1.10;;;1.00;;
10009;SDS011;5044;48.652;9.250;2022-07-05T00:05:18;1.23;;;1.08;;
10009;SDS011;5044;48.652;9.250;2022-07-05T00:07:44;2.88;;;1.17;;
10009;SDS011;5044;48.652;9.250;2022-07-05T00:10:11;3.33;;;0.90;;
10009;SDS011;5044;48.652;9.250;2022-07-05T00:12:38;1.73;;;0.98;;
10009;SDS011;5044;48.652;9.250;2022-07-05T00:15:05;2.80;;;0.75;;
10009;SDS011;5044;48.652;9.250;2022-07-05T00:17:34;1.42;;;1.13;;
10009;SDS011;5044;48.652;9.250;2022-07-05T00:20:01;1.20;;;1.00;;
10009;SDS011;5044;48.652;9.250;2022-07-05T00:22:30;1.30;;;1.13;;
10009;SDS011;5044;48.652;9.250;2022-07-05T00:24:59;1.42;;;1.05;;
10009;SDS011;5044;48.652;9.250;2022-07-05T00:27:26;3.22;;;1.35;;
10009;SDS011;5044;48.652;9.250;2022-07-05T00:29:53;1.35;;;0.95;;
10009;SDS011;5044;48.652;9.250;2022-07-05T00:32:20;3.28;;;1.30;;
10009;SDS011;5044;48.652;9.250;2022-07-05T00:34:48;1.20;;;1.02;;
10009;SDS011;5044;48.652;9.250;2022-07-05T00:37:15;2.45;;;0.95;;
10009;SDS011;5044;48.652;9.250;2022-07-05T00:39:44;1.10;;;0.98;;
10009;SDS011;5044;48.652;9.250;2022-07-05T00:42:11;2.47;;;1.30;;
10009;SDS011;5044;48.652;9.250;2022-07-05T00:44:38;1.88;;;1.00;;
10009;SDS011;5044;48.652;9.250;2022-07-05T00:47:07;2.35;;;1.00;;
10009;SDS011;5044;48.652;9.250;2022-07-05T00:49:35;1.40;;;1.00;;
10009;SDS011;5044;48.652;9.250;2022-07-05T00:52:04;2.63;;;1.00;;
10009;SDS011;5044;48.652;9.250;2022-07-05T00:54:32;1.30;;;1.02;;
10009;SDS011;5044;48.652;9.250;2022-07-05T00:57:00;5.38;;;1.40;;
10009;SDS011;5044;48.652;9.250;2022-07-05T00:59:28;1.20;;;1.10;;
10009;SDS011;5044;48.652;9.250;2022-07-05T01:01:56;2.00;;;1.00;;
10009;SDS011;5044;48.652;9.250;2022-07-05T01:04:23;0.90;;;0.90;;
10009;SDS011;5044;48.652;9.250;2022-07-05T01:06:51;2.10;;;1.17;;
10009;SDS011;5044;48.652;9.250;2022-07-05T01:09:20;2.72;;;1.30;;
10009;SDS011;5044;48.652;9.250;2022-07-05T01:11:50;1.63;;;1.10;;
10009;SDS011;5044;48.652;9.250;2022-07-05T01:14:17;2.42;;;1.10;;
10009;SDS011;5044;48.652;9.250;2022-07-05T01:16:45;1.38;;;1.15;;
10009;SDS011;5044;48.652;9.250;2022-07-05T01:19:12;1.42;;;1.10;;
10009;SDS011;5044;48.652;9.250;2022-07-05T01:21:40;3.17;;;1.30;;
10009;SDS011;5044;48.652;9.250;2022-07-05T01:24:10;2.20;;;1.50;;
10009;SDS011;5044;48.652;9.250;2022-07-05T01:26:38;1.95;;;1.20;;
10009;SDS011;5044;48.652;9.250;2022-07-05T01:29:06;1.83;;;1.55;;
10009;SDS011;5044;48.652;9.250;2022-07-05T01:31:35;2.42;;;1.50;;
10009;SDS011;5044;48.652;9.250;2022-07-05T01:34:03;2.15;;;1.10;;
10009;SDS011;5044;48.652;9.250;2022-07-05T01:36:30;1.58;;;1.13;;
10009;SDS011;5044;48.652;9.250;2022-07-05T01:38:58;2.00;;;1.15;;
10009;SDS011;5044;48.652;9.250;2022-07-05T01:41:28;1.13;;;1.05;;
10009;SDS011;5044;48.652;9.250;2022-07-05T01:43:56;1.35;;;1.17;;
10009;SDS011;5044;48.652;9.250;2022-07-05T01:46:22;1.58;;;1.00;;
10009;SDS011;5044;48.652;9.250;2022-07-05T01:48:53;1.77;;;1.20;;
10009;SDS011;5044;48.652;9.250;2022-07-05T01:51:24;2.47;;;1.33;;
10009;SDS011;5044;48.652;9.250;2022-07-05T01:53:53;2.15;;;1.23;;
10009;SDS011;5044;48.652;9.250;2022-07-05T01:56:20;2.08;;;1.30;;
10009;SDS011;5044;48.652;9.250;2022-07-05T01:58:48;1.48;;;1.20;;
10009;SDS011;5044;48.652;9.250;2022-07-05T02:01:28;1.17;;;1.08;;
10009;SDS011;5044;48.652;9.250;2022-07-05T02:03:58;1.40;;;1.30;;
10009;SDS011;5044;48.652;9.250;2022-07-05T02:06:25;2.70;;;1.13;;
10009;SDS011;5044;48.652;9.250;2022-07-05T02:08:52;2.67;;;1.23;;
10009;SDS011;5044;48.652;9.250;2022-07-05T02:11:19;1.33;;;1.20;;
10009;SDS011;5044;48.652;9.250;2022-07-05T02:13:46;3.78;;;1.27;;
10009;SDS011;5044;48.652;9.250;2022-07-05T02:16:15;2.65;;;1.38;;
10009;SDS011;5044;48.652;9.250;2022-07-05T02:18:42;1.92;;;1.20;;
10009;SDS011;5044;48.652;9.250;2022-07-05T02:21:09;2.70;;;1.40;;
10009;SDS011;5044;48.652;9.250;2022-07-05T02:23:35;1.77;;;1.20;;
10009;SDS011;5044;48.652;9.250;2022-07-05T02:26:02;2.45;;;1.70;;
10009;SDS011;5044;48.652;9.250;2022-07-05T02:28:29;1.58;;;1.15;;
10009;SDS011;5044;48.652;9.250;2022-07-05T02:30:57;1.42;;;1.25;;
10009;SDS011;5044;48.652;9.250;2022-07-05T02:33:24;1.45;;;1.33;;
10009;SDS011;5044;48.652;9.250;2022-07-05T02:35:51;0.90;;;0.85;;
10009;SDS011;5044;48.652;9.250;2022-07-05T02:38:18;2.15;;;1.58;;
10009;SDS011;5044;48.652;9.250;2022-07-05T02:40:45;2.47;;;1.27;;
10009;SDS011;5044;48.652;9.250;2022-07-05T02:43:12;1.60;;;1.20;;
10009;SDS011;5044;48.652;9.250;2022-07-05T02:45:38;1.58;;;1.10;;
10009;SDS011;5044;48.652;9.250;2022-07-05T02:48:07;4.72;;;1.02;;
10009;SDS011;5044;48.652;9.250;2022-07-05T02:50:34;1.95;;;1.20;;
10009;SDS011;5044;48.652;9.250;2022-07-05T02:53:00;1.08;;;0.98;;
10009;SDS011;5044;48.652;9.250;2022-07-05T02:55:27;1.33;;;1.13;;
10009;SDS011;5044;48.652;9.250;2022-07-05T02:57:54;1.48;;;1.00;;
10009;SDS011;5044;48.652;9.250;2022-07-05T03:00:22;1.75;;;1.10;;
10009;SDS011;5044;48.652;9.250;2022-07-05T03:02:49;2.72;;;1.20;;
10009;SDS011;5044;48.652;9.250;2022-07-05T03:05:18;2.20;;;1.27;;
10009;SDS011;5044;48.652;9.250;2022-07-05T03:07:45;1.30;;;1.20;;
10009;SDS011;5044;48.652;9.250;2022-07-05T03:10:12;2.83;;;1.10;;
10009;SDS011;5044;48.652;9.250;2022-07-05T03:12:39;4.55;;;0.98;;
10009;SDS011;5044;48.652;9.250;2022-07-05T03:15:06;2.22;;;0.90;;
10009;SDS011;5044;48.652;9.250;2022-07-05T03:17:34;1.42;;;1.20;;
10009;SDS011;5044;48.652;9.250;2022-07-05T03:20:01;1.67;;;1.40;;
10009;SDS011;5044;48.652;9.250;2022-07-05T03:22:29;1.35;;;1.25;;
10009;SDS011;5044;48.652;9.250;2022-07-05T03:24:56;2.60;;;1.40;;
10009;SDS011;5044;48.652;9.250;2022-07-05T03:27:23;3.33;;;1.40;;
10009;SDS011;5044;48.652;9.250;2022-07-05T03:29:50;2.72;;;1.20;;
10009;SDS011;5044;48.652;9.250;2022-07-05T03:32:17;1.08;;;0.98;;
10009;SDS011;5044;48.652;9.250;2022-07-05T03:34:43;1.08;;;0.95;;
10009;SDS011;5044;48.652;9.250;2022-07-05T03:37:10;3.03;;;1.00;;
10009;SDS011;5044;48.652;9.250;2022-07-05T03:39:38;2.17;;;1.25;;
10009;SDS011;5044;48.652;9.250;2022-07-05T03:42:05;1.40;;;1.20;;
10009;SDS011;5044;48.652;9.250;2022-07-05T03:44:33;3.83;;;1.50;;
10009;SDS011;5044;48.652;9.250;2022-07-05T03:46:59;2.33;;;1.30;;
10009;SDS011;5044;48.652;9.250;2022-07-05T03:49:27;2.85;;;1.50;;
10009;SDS011;5044;48.652;9.250;2022-07-05T03:51:54;1.73;;;1.50;;
10009;SDS011;5044;48.652;9.250;2022-07-05T03:54:21;1.83;;;1.50;;
10009;SDS011;5044;48.652;9.250;2022-07-05T03:56:49;1.10;;;1.00;;
10009;SDS011;5044;48.652;9.250;2022-07-05T03:59:16;2.50;;;1.30;;
10009;SDS011;5044;48.652;9.250;2022-07-05T04:01:43;2.03;;;1.73;;
10009;SDS011;5044;48.652;9.250;2022-07-05T04:04:09;2.42;;;1.73;;
10009;SDS011;5044;48.652;9.250;2022-07-05T04:06:36;3.45;;;1.48;;
10009;SDS011;5044;48.652;9.250;2022-07-05T04:09:03;2.55;;;1.42;;
10009;SDS011;5044;48.652;9.250;2022-07-05T04:11:30;2.58;;;1.10;;
10009;SDS011;5044;48.652;9.250;2022-07-05T04:13:59;1.23;;;0.90;;
10009;SDS011;5044;48.652;9.250;2022-07-05T04:16:25;1.30;;;1.20;;
10009;SDS011;5044;48.652;9.250;2022-07-05T04:18:53;2.75;;;2.28;;
10009;SDS011;5044;48.652;9.250;2022-07-05T04:21:20;2.72;;;1.67;;
10009;SDS011;5044;48.652;9.250;2022-07-05T04:23:47;1.30;;;1.20;;
10009;SDS011;5044;48.652;9.250;2022-07-05T04:26:15;3.28;;;1.38;;
10009;SDS011;5044;48.652;9.250;2022-07-05T04:28:42;1.83;;;1.20;;
10009;SDS011;5044;48.652;9.250;2022-07-05T04:31:26;2.50;;;1.15;;
10009;SDS011;5044;48.652;9.250;2022-07-05T04:33:57;1.20;;;1.10;;
10009;SDS011;5044;48.652;9.250;2022-07-05T04:36:34;1.45;;;1.20;;
10009;SDS011;5044;48.652;9.250;2022-07-05T04:39:08;2.55;;;1.50;;
10009;SDS011;5044;48.652;9.250;2022-07-05T04:41:56;4.28;;;1.35;;
10009;SDS011;5044;48.652;9.250;2022-07-05T04:44:30;3.60;;;1.43;;
10009;SDS011;5044;48.652;9.250;2022-07-05T04:47:16;2.50;;;1.20;;
10009;SDS011;5044;48.652;9.250;2022-07-05T04:49:46;5.40;;;1.55;;
10009;SDS011;5044;48.652;9.250;2022-07-05T04:52:25;3.78;;;1.63;;
10009;SDS011;5044;48.652;9.250;2022-07-05T04:54:58;2.95;;;1.77;;
10009;SDS011;5044;48.652;9.250;2022-07-05T04:57:41;8.07;;;2.22;;
10009;SDS011;5044;48.652;9.250;2022-07-05T05:00:14;2.85;;;2.13;;
10009;SDS011;5044;48.652;9.250;2022-07-05T05:02:45;3.15;;;1.90;;
10009;SDS011;5044;48.652;9.250;2022-07-05T05:08:10;3.33;;;1.80;;
10009;SDS011;5044;48.652;9.250;2022-07-05T05:11:02;3.60;;;1.70;;
10009;SDS011;5044;48.652;9.250;2022-07-05T05:13:36;4.05;;;1.70;;
10009;SDS011;5044;48.652;9.250;2022-07-05T05:16:41;3.28;;;2.00;;
10009;SDS011;5044;48.652;9.250;2022-07-05T05:22:32;6.35;;;2.20;;
10009;SDS011;5044;48.652;9.250;2022-07-05T05:26:06;2.53;;;1.25;;
10009;SDS011;5044;48.652;9.250;2022-07-05T05:29:02;4.80;;;1.40;;
10009;SDS011;5044;48.652;9.250;2022-07-05T05:32:30;2.70;;;1.60;;
10009;SDS011;5044;48.652;9.250;2022-07-05T05:36:01;6.93;;;1.60;;
10009;SDS011;5044;48.652;9.250;2022-07-05T05:41:40;3.50;;;1.15;;
10009;SDS011;5044;48.652;9.250;2022-07-05T05:44:07;2.25;;;1.35;;
10009;SDS011;5044;48.652;9.250;2022-07-05T05:46:35;4.18;;;1.08;;
10009;SDS011;5044;48.652;9.250;2022-07-05T05:49:02;3.03;;;1.25;;
10009;SDS011;5044;48.652;9.250;2022-07-05T05:51:29;1.98;;;1.50;;
10009;SDS011;5044;48.652;9.250;2022-07-05T05:53:58;1.02;;;0.93;;
10009;SDS011;5044;48.652;9.250;2022-07-05T05:56:25;2.70;;;2.15;;
10009;SDS011;5044;48.652;9.250;2022-07-05T05:58:58;2.70;;;1.40;;
10009;SDS011;5044;48.652;9.250;2022-07-05T06:01:31;1.98;;;1.60;;
10009;SDS011;5044;48.652;9.250;2022-07-05T06:04:00;4.07;;;1.48;;
10009;SDS011;5044;48.652;9.250;2022-07-05T06:06:33;5.13;;;1.50;;
10009;SDS011;5044;48.652;9.250;2022-07-05T06:09:02;4.47;;;1.60;;
10009;SDS011;5044;48.652;9.250;2022-07-05T06:11:34;4.00;;;1.35;;
10009;SDS011;5044;48.652;9.250;2022-07-05T06:14:10;1.33;;;1.23;;
10009;SDS011;5044;48.652;9.250;2022-07-05T06:16:41;2.85;;;1.40;;
10009;SDS011;5044;48.652;9.250;2022-07-05T06:19:15;1.30;;;1.20;;
10009;SDS011;5044;48.652;9.250;2022-07-05T06:21:45;6.45;;;1.70;;
10009;SDS011;5044;48.652;9.250;2022-07-05T06:24:14;9.82;;;1.30;;
10009;SDS011;5044;48.652;9.250;2022-07-05T06:26:43;3.38;;;1.60;;
10009;SDS011;5044;48.652;9.250;2022-07-05T06:29:13;2.38;;;1.17;;
10009;SDS011;5044;48.652;9.250;2022-07-05T06:31:40;2.15;;;1.48;;
10009;SDS011;5044;48.652;9.250;2022-07-05T06:34:11;1.95;;;1.17;;
10009;SDS011;5044;48.652;9.250;2022-07-05T06:36:42;4.50;;;1.30;;
10009;SDS011;5044;48.652;9.250;2022-07-05T06:39:15;1.70;;;1.02;;
10009;SDS011;5044;48.652;9.250;2022-07-05T06:41:47;1.83;;;0.90;;
10009;SDS011;5044;48.652;9.250;2022-07-05T06:47:04;2.03;;;1.00;;
10009;SDS011;5044;48.652;9.250;2022-07-05T06:49:32;1.98;;;0.93;;
10009;SDS011;5044;48.652;9.250;2022-07-05T06:52:02;2.65;;;1.20;;
10009;SDS011;5044;48.652;9.250;2022-07-05T06:54:33;1.00;;;0.90;;
10009;SDS011;5044;48.652;9.250;2022-07-05T06:57:05;1.25;;;0.80;;
10009;SDS011;5044;48.652;9.250;2022-07-05T06:59:43;1.40;;;0.90;;
10009;SDS011;5044;48.652;9.250;2022-07-05T07:02:14;1.80;;;0.95;;
10009;SDS011;5044;48.652;9.250;2022-07-05T07:04:44;1.75;;;1.08;;
10009;SDS011;5044;48.652;9.250;2022-07-05T07:07:11;2.47;;;0.90;;
10009;SDS011;5044;48.652;9.250;2022-07-05T07:09:55;2.60;;;1.10;;
10009;SDS011;5044;48.652;9.250;2022-07-05T07:12:28;2.45;;;0.80;;
10009;SDS011;5044;48.652;9.250;2022-07-05T07:15:09;2.85;;;1.20;;
10009;SDS011;5044;48.652;9.250;2022-07-05T07:17:37;3.03;;;0.90;;
10009;SDS011;5044;48.652;9.250;2022-07-05T07:20:08;2.05;;;0.90;;
10009;SDS011;5044;48.652;9.250;2022-07-05T07:22:43;2.38;;;1.10;;
10009;SDS011;5044;48.652;9.250;2022-07-05T07:25:12;3.05;;;1.40;;
10009;SDS011;5044;48.652;9.250;2022-07-05T07:27:46;1.40;;;0.95;;
10009;SDS011;5044;48.652;9.250;2022-07-05T07:30:25;2.17;;;1.00;;
10009;SDS011;5044;48.652;9.250;2022-07-05T07:32:55;2.85;;;0.93;;
10009;SDS011;5044;48.652;9.250;2022-07-05T07:35:28;3.97;;;1.20;;
10009;SDS011;5044;48.652;9.250;2022-07-05T07:37:57;2.88;;;0.70;;
10009;SDS011;5044;48.652;9.250;2022-07-05T07:40:35;4.10;;;1.00;;
10009;SDS011;5044;48.652;9.250;2022-07-05T07:43:04;2.28;;;1.00;;
10009;SDS011;5044;48.652;9.250;2022-07-05T07:45:38;1.73;;;0.95;;
10009;SDS011;5044;48.652;9.250;2022-07-05T07:48:11;6.28;;;1.08;;
10009;SDS011;5044;48.652;9.250;2022-07-05T07:50:44;8.80;;;1.00;;
10009;SDS011;5044;48.652;9.250;2022-07-05T07:53:15;2.78;;;0.77;;
10009;SDS011;5044;48.652;9.250;2022-07-05T07:55:45;1.50;;;0.80;;
10009;SDS011;5044;48.652;9.250;2022-07-05T07:58:20;2.45;;;1.20;;
10009;SDS011;5044;48.652;9.250;2022-07-05T08:00:54;2.90;;;0.82;;
10009;SDS011;5044;48.652;9.250;2022-07-05T08:03:27;1.83;;;0.52;;
10009;SDS011;5044;48.652;9.250;2022-07-05T08:06:01;0.88;;;0.50;;
10009;SDS011;5044;48.652;9.250;2022-07-05T08:08:32;4.03;;;0.80;;
10009;SDS011;5044;48.652;9.250;2022-07-05T08:11:12;3.67;;;0.70;;
10009;SDS011;5044;48.652;9.250;2022-07-05T08:13:42;3.80;;;0.73;;
10009;SDS011;5044;48.652;9.250;2022-07-05T08:16:14;2.38;;;0.88;;
10009;SDS011;5044;48.652;9.250;2022-07-05T08:18:43;5.88;;;1.02;;
10009;SDS011;5044;48.652;9.250;2022-07-05T08:21:27;1.25;;;0.65;;
10009;SDS011;5044;48.652;9.250;2022-07-05T08:23:59;1.77;;;0.80;;
10009;SDS011;5044;48.652;9.250;2022-07-05T08:26:38;0.52;;;0.52;;
10009;SDS011;5044;48.652;9.250;2022-07-05T08:29:13;1.40;;;0.85;;
10009;SDS011;5044;48.652;9.250;2022-07-05T08:31:46;3.75;;;1.20;;
10009;SDS011;5044;48.652;9.250;2022-07-05T08:34:18;1.65;;;0.77;;
10009;SDS011;5044;48.652;9.250;2022-07-05T08:36:47;3.40;;;1.00;;
10009;SDS011;5044;48.652;9.250;2022-07-05T08:39:16;1.50;;;0.63;;
10009;SDS011;5044;48.652;9.250;2022-07-05T08:41:47;1.65;;;0.70;;
10009;SDS011;5044;48.652;9.250;2022-07-05T08:44:19;6.60;;;0.88;;
10009;SDS011;5044;48.652;9.250;2022-07-05T08:46:51;2.28;;;0.52;;
10009;SDS011;5044;48.652;9.250;2022-07-05T08:49:26;1.52;;;0.80;;
10009;SDS011;5044;48.652;9.250;2022-07-05T08:51:57;1.15;;;0.43;;
10009;SDS011;5044;48.652;9.250;2022-07-05T08:54:29;4.88;;;0.90;;
10009;SDS011;5044;48.652;9.250;2022-07-05T08:56:58;1.02;;;0.60;;
10009;SDS011;5044;48.652;9.250;2022-07-05T08:59:28;1.35;;;0.60;;
10009;SDS011;5044;48.652;9.250;2022-07-05T09:01:57;1.40;;;0.63;;
10009;SDS011;5044;48.652;9.250;2022-07-05T09:04:33;4.40;;;0.95;;
10009;SDS011;5044;48.652;9.250;2022-07-05T09:07:06;9.13;;;0.90;;
10009;SDS011;5044;48.652;9.250;2022-07-05T09:09:46;2.33;;;0.60;;
10009;SDS011;5044;48.652;9.250;2022-07-05T09:12:16;2.15;;;0.77;;
10009;SDS011;5044;48.652;9.250;2022-07-05T09:14:46;1.05;;;0.68;;
10009;SDS011;5044;48.652;9.250;2022-07-05T09:17:23;3.28;;;0.70;;
10009;SDS011;5044;48.652;9.250;2022-07-05T09:20:06;5.28;;;1.17;;
10009;SDS011;5044;48.652;9.250;2022-07-05T09:22:41;2.13;;;0.60;;
10009;SDS011;5044;48.652;9.250;2022-07-05T09:25:18;1.13;;;0.82;;
10009;SDS011;5044;48.652;9.250;2022-07-05T09:27:51;3.83;;;0.70;;
10009;SDS011;5044;48.652;9.250;2022-07-05T09:30:23;1.10;;;0.68;;
10009;SDS011;5044;48.652;9.250;2022-07-05T09:33:12;1.15;;;0.70;;
10009;SDS011;5044;48.652;9.250;2022-07-05T09:35:40;0.60;;;0.60;;
10009;SDS011;5044;48.652;9.250;2022-07-05T09:38:16;2.05;;;0.50;;
10009;SDS011;5044;48.652;9.250;2022-07-05T09:40:47;0.65;;;0.60;;
10009;SDS011;5044;48.652;9.250;2022-07-05T09:43:17;1.15;;;0.70;;
10009;SDS011;5044;48.652;9.250;2022-07-05T09:45:55;2.95;;;1.05;;
10009;SDS011;5044;48.652;9.250;2022-07-05T09:48:24;1.38;;;0.43;;
10009;SDS011;5044;48.652;9.250;2022-07-05T09:50:51;1.50;;;0.60;;
10009;SDS011;5044;48.652;9.250;2022-07-05T09:53:18;1.02;;;0.60;;
10009;SDS011;5044;48.652;9.250;2022-07-05T09:55:59;2.95;;;1.52;;
10009;SDS011;5044;48.652;9.250;2022-07-05T09:58:28;1.33;;;0.60;;
10009;SDS011;5044;48.652;9.250;2022-07-05T10:00:57;2.38;;;0.68;;
10009;SDS011;5044;48.652;9.250;2022-07-05T10:03:26;3.20;;;0.70;;
10009;SDS011;5044;48.652;9.250;2022-07-05T10:05:53;2.00;;;0.70;;
10009;SDS011;5044;48.652;9.250;2022-07-05T10:08:38;1.83;;;0.63;;
10009;SDS011;5044;48.652;9.250;2022-07-05T10:11:08;2.35;;;0.80;;
10009;SDS011;5044;48.652;9.250;2022-07-05T10:13:42;1.55;;;0.80;;
10009;SDS011;5044;48.652;9.250;2022-07-05T10:16:11;0.95;;;0.50;;
10009;SDS011;5044;48.652;9.250;2022-07-05T10:18:42;2.78;;;0.65;;
10009;SDS011;5044;48.652;9.250;2022-07-05T10:21:13;1.67;;;0.70;;
10009;SDS011;5044;48.652;9.250;2022-07-05T10:23:42;1.15;;;1.05;;
10009;SDS011;5044;48.652;9.250;2022-07-05T10:26:11;1.73;;;0.85;;
10009;SDS011;5044;48.652;9.250;2022-07-05T10:28:39;1.67;;;0.60;;
10009;SDS011;5044;48.652;9.250;2022-07-05T10:31:07;0.90;;;0.60;;
10009;SDS011;5044;48.652;9.250;2022-07-05T10:33:34;1.17;;;0.60;;
10009;SDS011;5044;48.652;9.250;2022-07-05T10:36:09;1.60;;;0.60;;
10009;SDS011;5044;48.652;9.250;2022-07-05T10:38:42;1.65;;;0.75;;
10009;SDS011;5044;48.652;9.250;2022-07-05T10:41:17;0.65;;;0.60;;
10009;SDS011;5044;48.652;9.250;2022-07-05T10:43:52;0.88;;;0.47;;
10009;SDS011;5044;48.652;9.250;2022-07-05T10:46:31;3.33;;;1.00;;
10009;SDS011;5044;48.652;9.250;2022-07-05T10:49:09;2.75;;;0.60;;
10009;SDS011;5044;48.652;9.250;2022-07-05T10:51:40;0.90;;;0.50;;
10009;SDS011;5044;48.652;9.250;2022-07-05T10:54:10;1.15;;;0.50;;
10009;SDS011;5044;48.652;9.250;2022-07-05T10:56:37;4.13;;;0.70;;
10009;SDS011;5044;48.652;9.250;2022-07-05T10:59:05;4.75;;;0.77;;
10009;SDS011;5044;48.652;9.250;2022-07-05T11:01:35;3.28;;;0.60;;
10009;SDS011;5044;48.652;9.250;2022-07-05T11:04:23;4.75;;;0.50;;
10009;SDS011;5044;48.652;9.250;2022-07-05T11:06:59;0.75;;;0.40;;
10009;SDS011;5044;48.652;9.250;2022-07-05T11:09:26;2.13;;;0.50;;
10009;SDS011;5044;48.652;9.250;2022-07-05T11:12:04;1.30;;;0.55;;
10009;SDS011;5044;48.652;9.250;2022-07-05T11:14:33;1.65;;;0.63;;
10009;SDS011;5044;48.652;9.250;2022-07-05T11:17:13;1.98;;;0.60;;
10009;SDS011;5044;48.652;9.250;2022-07-05T11:20:05;1.20;;;0.45;;
10009;SDS011;5044;48.652;9.250;2022-07-05T11:23:02;2.90;;;0.50;;
10009;SDS011;5044;48.652;9.250;2022-07-05T11:25:34;2.20;;;0.60;;
10009;SDS011;5044;48.652;9.250;2022-07-05T11:30:43;2.00;;;0.52;;
10009;SDS011;5044;48.652;9.250;2022-07-05T11:33:37;0.95;;;0.30;;
10009;SDS011;5044;48.652;9.250;2022-07-05T11:36:18;1.70;;;0.57;;
10009;SDS011;5044;48.652;9.250;2022-07-05T11:41:46;1.15;;;0.70;;
10009;SDS011;5044;48.652;9.250;2022-07-05T11:44:14;1.92;;;0.68;;
10009;SDS011;5044;48.652;9.250;2022-07-05T11:46:42;2.03;;;0.60;;
10009;SDS011;5044;48.652;9.250;2022-07-05T11:49:09;3.60;;;0.60;;
10009;SDS011;5044;48.652;9.250;2022-07-05T11:51:36;2.53;;;0.50;;
10009;SDS011;5044;48.652;9.250;2022-07-05T11:54:08;2.92;;;0.70;;
10009;SDS011;5044;48.652;9.250;2022-07-05T11:56:38;3.55;;;0.77;;
10009;SDS011;5044;48.652;9.250;2022-07-05T12:02:50;0.90;;;0.55;;
10009;SDS011;5044;48.652;9.250;2022-07-05T12:05:47;0.93;;;0.40;;
10009;SDS011;5044;48.652;9.250;2022-07-05T12:08:19;1.52;;;0.73;;
10009;SDS011;5044;48.652;9.250;2022-07-05T12:11:27;1.75;;;0.70;;
10009;SDS011;5044;48.652;9.250;2022-07-05T12:14:22;1.08;;;0.55;;
10009;SDS011;5044;48.652;9.250;2022-07-05T12:19:44;0.70;;;0.60;;
10009;SDS011;5044;48.652;9.250;2022-07-05T12:22:13;0.95;;;0.70;;
10009;SDS011;5044;48.652;9.250;2022-07-05T12:24:46;0.77;;;0.57;;
10009;SDS011;5044;48.652;9.250;2022-07-05T12:27:13;0.88;;;0.55;;
10009;SDS011;5044;48.652;9.250;2022-07-05T12:29:50;1.10;;;0.75;;
10009;SDS011;5044;48.652;9.250;2022-07-05T12:32:24;1.88;;;0.50;;
10009;SDS011;5044;48.652;9.250;2022-07-05T12:34:52;0.95;;;0.52;;
10009;SDS011;5044;48.652;9.250;2022-07-05T12:37:27;0.80;;;0.52;;
10009;SDS011;5044;48.652;9.250;2022-07-05T12:40:03;2.08;;;0.50;;
10009;SDS011;5044;48.652;9.250;2022-07-05T12:42:31;1.40;;;0.55;;
10009;SDS011;5044;48.652;9.250;2022-07-05T12:45:08;1.55;;;0.60;;
10009;SDS011;5044;48.652;9.250;2022-07-05T12:47:50;1.27;;;0.52;;
10009;SDS011;5044;48.652;9.250;2022-07-05T12:50:18;3.05;;;0.70;;
10009;SDS011;5044;48.652;9.250;2022-07-05T12:53:02;3.47;;;0.70;;
10009;SDS011;5044;48.652;9.250;2022-07-05T12:55:57;1.08;;;0.70;;
10009;SDS011;5044;48.652;9.250;2022-07-05T12:58:46;1.17;;;0.65;;
10009;SDS011;5044;48.652;9.250;2022-07-05T13:01:19;3.78;;;0.70;;
10009;SDS011;5044;48.652;9.250;2022-07-05T13:04:00;3.85;;;0.70;;
10009;SDS011;5044;48.652;9.250;2022-07-05T13:06:46;1.55;;;0.70;;
10009;SDS011;5044;48.652;9.250;2022-07-05T13:09:16;2.17;;;0.50;;
10009;SDS011;5044;48.652;9.250;2022-07-05T13:12:04;1.10;;;0.70;;
10009;SDS011;5044;48.652;9.250;2022-07-05T13:14:32;2.35;;;0.80;;
10009;SDS011;5044;48.652;9.250;2022-07-05T13:17:01;1.92;;;0.70;;
10009;SDS011;5044;48.652;9.250;2022-07-05T13:19:28;0.50;;;0.50;;
10009;SDS011;5044;48.652;9.250;2022-07-05T13:21:55;1.05;;;0.60;;
10009;SDS011;5044;48.652;9.250;2022-07-05T13:24:30;1.98;;;0.60;;
10009;SDS011;5044;48.652;9.250;2022-07-05T13:26:57;2.40;;;0.70;;
10009;SDS011;5044;48.652;9.250;2022-07-05T13:29:27;1.83;;;0.60;;
10009;SDS011;5044;48.652;9.250;2022-07-05T13:31:56;1.70;;;0.68;;
10009;SDS011;5044;48.652;9.250;2022-07-05T13:34:29;1.98;;;0.60;;
10009;SDS011;5044;48.652;9.250;2022-07-05T13:36:56;0.90;;;0.60;;
10009;SDS011;5044;48.652;9.250;2022-07-05T13:39:24;1.00;;;0.60;;
10009;SDS011;5044;48.652;9.250;2022-07-05T13:41:51;1.58;;;0.60;;
10009;SDS011;5044;48.652;9.250;2022-07-05T13:44:21;1.00;;;0.77;;
10009;SDS011;5044;48.652;9.250;2022-07-05T13:46:48;0.40;;;0.40;;
10009;SDS011;5044;48.652;9.250;2022-07-05T13:49:15;0.93;;;0.60;;
10009;SDS011;5044;48.652;9.250;2022-07-05T13:51:44;1.73;;;1.05;;
10009;SDS011;5044;48.652;9.250;2022-07-05T13:54:10;0.90;;;0.60;;
10009;SDS011;5044;48.652;9.250;2022-07-05T13:56:37;3.20;;;0.60;;
10009;SDS011;5044;48.652;9.250;2022-07-05T13:59:04;0.95;;;0.60;;
10009;SDS011;5044;48.652;9.250;2022-07-05T14:01:34;1.17;;;0.70;;
10009;SDS011;5044;48.652;9.250;2022-07-05T14:04:04;2.58;;;0.70;;
10009;SDS011;5044;48.652;9.250;2022-07-05T14:06:31;1.33;;;0.90;;
10009;SDS011;5044;48.652;9.250;2022-07-05T14:09:01;0.93;;;0.65;;
10009;SDS011;5044;48.652;9.250;2022-07-05T14:11:28;2.65;;;0.80;;
10009;SDS011;5044;48.652;9.250;2022-07-05T14:13:55;1.90;;;0.68;;
10009;SDS011;5044;48.652;9.250;2022-07-05T14:16:22;3.42;;;0.63;;
10009;SDS011;5044;48.652;9.250;2022-07-05T14:18:49;5.47;;;0.77;;
10009;SDS011;5044;48.652;9.250;2022-07-05T14:21:17;0.93;;;0.57;;
10009;SDS011;5044;48.652;9.250;2022-07-05T14:23:45;0.68;;;0.57;;
10009;SDS011;5044;48.652;9.250;2022-07-05T14:26:14;4.35;;;0.60;;
10009;SDS011;5044;48.652;9.250;2022-07-05T14:28:49;1.15;;;0.80;;
10009;SDS011;5044;48.652;9.250;2022-07-05T14:31:18;1.88;;;0.65;;
10009;SDS011;5044;48.652;9.250;2022-07-05T14:34:04;1.45;;;0.85;;
10009;SDS011;5044;48.652;9.250;2022-07-05T14:36:59;1.10;;;0.60;;
10009;SDS011;5044;48.652;9.250;2022-07-05T14:39:27;5.65;;;1.00;;
10009;SDS011;5044;48.652;9.250;2022-07-05T14:42:02;2.78;;;0.90;;
10009;SDS011;5044;48.652;9.250;2022-07-05T14:44:30;2.17;;;0.85;;
10009;SDS011;5044;48.652;9.250;2022-07-05T14:46:57;5.25;;;0.55;;
10009;SDS011;5044;48.652;9.250;2022-07-05T14:49:25;1.08;;;0.75;;
10009;SDS011;5044;48.652;9.250;2022-07-05T14:51:52;3.60;;;0.55;;
10009;SDS011;5044;48.652;9.250;2022-07-05T14:54:19;2.33;;;0.75;;
10009;SDS011;5044;48.652;9.250;2022-07-05T14:56:57;1.63;;;0.73;;
10009;SDS011;5044;48.652;9.250;2022-07-05T14:59:27;4.18;;;1.15;;
10009;SDS011;5044;48.652;9.250;2022-07-05T15:01:55;1.48;;;0.85;;
10009;SDS011;5044;48.652;9.250;2022-07-05T15:04:21;1.35;;;1.05;;
10009;SDS011;5044;48.652;9.250;2022-07-05T15:06:51;2.72;;;0.70;;
10009;SDS011;5044;48.652;9.250;2022-07-05T15:09:23;1.60;;;0.50;;
10009;SDS011;5044;48.652;9.250;2022-07-05T15:11:59;1.30;;;0.65;;
10009;SDS011;5044;48.652;9.250;2022-07-05T15:14:28;1.23;;;0.77;;
10009;SDS011;5044;48.652;9.250;2022-07-05T15:16:58;1.73;;;0.70;;
10009;SDS011;5044;48.652;9.250;2022-07-05T15:19:25;2.42;;;1.73;;
10009;SDS011;5044;48.652;9.250;2022-07-05T15:21:53;4.78;;;0.90;;
10009;SDS011;5044;48.652;9.250;2022-07-05T15:24:19;4.25;;;0.80;;
10009;SDS011;5044;48.652;9.250;2022-07-05T15:26:47;2.25;;;0.80;;
10009;SDS011;5044;48.652;9.250;2022-07-05T15:29:15;2.15;;;0.70;;
10009;SDS011;5044;48.652;9.250;2022-07-05T15:31:44;0.90;;;0.47;;
10009;SDS011;5044;48.652;9.250;2022-07-05T15:34:11;1.30;;;0.50;;
10009;SDS011;5044;48.652;9.250;2022-07-05T15:36:41;2.22;;;0.60;;
10009;SDS011;5044;48.652;9.250;2022-07-05T15:39:11;1.77;;;0.80;;
10009;SDS011;5044;48.652;9.250;2022-07-05T15:41:38;5.50;;;1.13;;
10009;SDS011;5044;48.652;9.250;2022-07-05T15:44:05;2.78;;;0.82;;
10009;SDS011;5044;48.652;9.250;2022-07-05T15:46:32;1.88;;;0.80;;
10009;SDS011;5044;48.652;9.250;2022-07-05T15:49:15;2.90;;;0.75;;
10009;SDS011;5044;48.652;9.250;2022-07-05T15:54:12;3.80;;;0.75;;